Time;durP1;ratioP1;P1;durP2;ratioP2;P2;SDS_P1;SDS_P2;PMS_P1;PMS_P2;Temp;Humidity;BMP_temperature;BMP_pressure;BME280_temperature;BME280_humidity;BME280_pressure;Samples;Min_cycle;Max_cycle;Signal;HPM_P1;HPM_P2
2023/07/18 00:02:10;;;;;;;8.07;1.60;;;16.30;99.90;;;;;;5026866;28;39049;-81
2023/07/18 00:04:37;;;;;;;9.35;1.83;;;16.20;99.90;;;;;;5050844;28;37285;-81
2023/07/18 00:07:04;;;;;;;5.15;1.40;;;16.10;99.90;;;;;;5027378;28;36009;-80
2023/07/18 00:09:30;;;;;;;5.03;2.28;;;16.10;99.90;;;;;;5027830;28;39546;-82
2023/07/18 00:11:56;;;;;;;6.45;2.00;;;16.00;99.90;;;;;;5029883;28;38446;-81
2023/07/18 00:14:23;;;;;;;6.82;1.63;;;16.00;99.90;;;;;;5029035;28;38436;-81
2023/07/18 00:16:49;;;;;;;9.05;1.83;;;15.90;99.90;;;;;;5028208;28;37257;-81
2023/07/18 00:19:15;;;;;;;10.57;2.13;;;15.90;99.90;;;;;;5027261;28;37737;-81
2023/07/18 00:21:41;;;;;;;8.48;1.95;;;15.80;99.90;;;;;;5028718;28;38858;-81
2023/07/18 00:24:07;;;;;;;5.72;1.60;;;15.80;99.90;;;;;;5027974;28;38569;-81
2023/07/18 00:26:35;;;;;;;5.85;1.50;;;15.70;99.90;;;;;;5027197;28;36278;-81
2023/07/18 00:29:01;;;;;;;6.43;1.83;;;15.70;99.90;;;;;;5041095;28;37349;-80
2023/07/18 00:31:27;;;;;;;8.65;2.17;;;15.70;99.90;;;;;;5018079;28;47291;-81
2023/07/18 00:33:53;;;;;;;5.10;2.00;;;15.60;99.90;;;;;;5027238;28;37930;-81
2023/07/18 00:36:20;;;;;;;6.80;1.80;;;15.50;99.90;;;;;;5042461;28;35855;-81
2023/07/18 00:38:47;;;;;;;7.38;1.88;;;15.50;99.90;;;;;;5029452;28;37830;-82
2023/07/18 00:41:13;;;;;;;5.90;1.90;;;15.50;99.90;;;;;;5037728;28;37481;-81
2023/07/18 00:43:39;;;;;;;5.90;2.22;;;15.40;99.90;;;;;;5026625;28;36949;-81
2023/07/18 00:46:08;;;;;;;4.03;1.77;;;15.40;99.90;;;;;;5042902;28;36584;-81
2023/07/18 00:48:35;;;;;;;6.78;2.10;;;15.40;99.90;;;;;;5027217;28;38918;-81
2023/07/18 00:51:07;;;;;;;6.28;1.80;;;15.40;99.90;;;;;;5025812;28;38718;-80
2023/07/18 00:53:35;;;;;;;8.00;1.80;;;15.40;99.90;;;;;;5024281;28;37755;-81
2023/07/18 00:56:02;;;;;;;5.53;1.83;;;15.40;99.90;;;;;;5029110;28;37105;-79
2023/07/18 00:58:30;;;;;;;5.53;1.77;;;15.30;99.90;;;;;;5043812;28;37622;-81
2023/07/18 01:03:32;;;;;;;5.20;1.90;;;15.20;99.90;;;;;;5166461;22;20050;-77
2023/07/18 01:05:58;;;;;;;8.27;1.95;;;15.20;99.90;;;;;;5033812;28;37000;-78
2023/07/18 01:08:24;;;;;;;6.82;1.77;;;15.20;99.90;;;;;;5051652;28;37603;-78
2023/07/18 01:10:51;;;;;;;5.80;1.67;;;15.20;99.90;;;;;;5026351;28;38791;-78
2023/07/18 01:13:17;;;;;;;5.32;1.65;;;15.10;99.90;;;;;;5042784;28;38462;-78
2023/07/18 01:15:44;;;;;;;7.45;2.08;;;15.10;99.90;;;;;;5036922;28;37326;-78
2023/07/18 01:18:10;;;;;;;5.90;1.88;;;15.10;99.90;;;;;;5033679;28;38322;-78
2023/07/18 01:20:36;;;;;;;4.32;1.88;;;15.00;99.90;;;;;;5051527;28;40098;-77
2023/07/18 01:23:03;;;;;;;4.97;1.80;;;15.00;99.90;;;;;;5033818;28;38529;-77
2023/07/18 01:25:30;;;;;;;4.00;2.38;;;15.00;99.90;;;;;;5025604;28;37802;-77
2023/07/18 01:27:59;;;;;;;5.60;1.90;;;15.00;99.90;;;;;;5034937;28;37575;-78
2023/07/18 01:30:27;;;;;;;6.18;2.10;;;14.90;99.90;;;;;;5032355;28;37183;-78
2023/07/18 01:32:54;;;;;;;5.72;2.33;;;14.90;99.90;;;;;;5035286;28;39087;-78
2023/07/18 01:35:23;;;;;;;5.53;1.83;;;14.90;99.90;;;;;;5048591;28;38642;-78
2023/07/18 01:37:50;;;;;;;5.25;1.83;;;14.90;99.90;;;;;;5033187;28;38922;-77
2023/07/18 01:40:20;;;;;;;4.60;2.22;;;14.90;99.90;;;;;;5034096;28;38787;-78
2023/07/18 01:42:54;;;;;;;3.55;1.77;;;14.80;99.90;;;;;;5034140;28;38509;-78
2023/07/18 01:45:24;;;;;;;3.25;1.55;;;14.90;99.90;;;;;;5034491;28;37975;-78
2023/07/18 01:47:54;;;;;;;6.57;1.58;;;14.80;99.90;;;;;;5056344;28;39800;-78
2023/07/18 01:50:20;;;;;;;4.97;2.17;;;14.70;99.90;;;;;;5047881;28;39771;-78
2023/07/18 01:52:49;;;;;;;8.05;1.60;;;14.70;99.90;;;;;;5043737;28;39067;-78
2023/07/18 01:55:16;;;;;;;4.28;1.77;;;14.60;99.90;;;;;;5028315;28;36651;-78
2023/07/18 01:57:48;;;;;;;5.57;1.70;;;14.60;99.90;;;;;;5030162;28;38728;-78
2023/07/18 02:00:18;;;;;;;6.50;2.00;;;14.60;99.90;;;;;;5036072;28;39022;-78
2023/07/18 02:02:49;;;;;;;3.45;1.73;;;14.60;99.90;;;;;;5037221;28;38511;-77
2023/07/18 02:05:25;;;;;;;4.65;1.70;;;14.60;99.90;;;;;;5060933;28;36428;-79
2023/07/18 02:07:52;;;;;;;5.60;1.73;;;14.60;99.90;;;;;;5035673;28;37787;-77
2023/07/18 02:10:20;;;;;;;7.57;1.80;;;14.60;99.90;;;;;;5039774;28;37092;-80
2023/07/18 02:12:54;;;;;;;2.88;1.48;;;14.50;99.90;;;;;;5034650;28;37721;-79
2023/07/18 02:15:21;;;;;;;5.13;1.52;;;14.50;99.90;;;;;;5034510;28;37651;-78
2023/07/18 02:17:48;;;;;;;5.35;1.60;;;14.50;99.90;;;;;;5052257;28;38120;-78
2023/07/18 02:20:15;;;;;;;5.97;2.00;;;14.50;99.90;;;;;;5032792;28;38954;-78
2023/07/18 02:22:44;;;;;;;5.50;1.80;;;14.50;99.90;;;;;;5021742;28;38442;-78
2023/07/18 02:25:11;;;;;;;6.65;2.40;;;14.50;99.90;;;;;;5029527;28;36460;-77
2023/07/18 02:27:41;;;;;;;3.20;1.77;;;14.50;99.90;;;;;;5030240;28;39417;-78
2023/07/18 02:30:09;;;;;;;8.00;1.58;;;14.50;99.90;;;;;;5033789;28;37447;-78
2023/07/18 02:32:35;;;;;;;6.07;1.85;;;14.50;99.90;;;;;;5032616;28;47207;-77
2023/07/18 02:35:02;;;;;;;5.25;2.15;;;14.40;99.90;;;;;;5036147;28;37046;-80
2023/07/18 02:37:28;;;;;;;6.28;1.75;;;14.40;99.90;;;;;;5038760;28;38748;-80
2023/07/18 02:39:55;;;;;;;3.42;1.83;;;14.40;99.90;;;;;;5035746;28;37506;-80
2023/07/18 02:42:21;;;;;;;5.78;2.00;;;14.40;99.90;;;;;;5048525;28;37284;-80
2023/07/18 02:44:48;;;;;;;5.22;2.15;;;14.40;99.90;;;;;;5034719;28;36491;-80
2023/07/18 02:47:14;;;;;;;6.05;2.40;;;14.40;99.90;;;;;;5041780;28;39164;-80
2023/07/18 02:49:40;;;;;;;6.18;2.40;;;14.40;99.90;;;;;;5038492;28;38048;-80
2023/07/18 02:52:07;;;;;;;11.00;2.47;;;14.30;99.90;;;;;;5030405;28;37289;-80
2023/07/18 02:54:33;;;;;;;8.15;2.47;;;14.40;99.90;;;;;;5045009;28;37483;-80
2023/07/18 02:57:00;;;;;;;6.57;2.50;;;14.40;99.90;;;;;;5037822;28;38703;-78
2023/07/18 02:59:26;;;;;;;8.07;2.63;;;14.40;99.90;;;;;;5043359;28;38851;-79
2023/07/18 03:01:59;;;;;;;8.75;2.63;;;14.40;99.90;;;;;;5046855;28;37185;-79
2023/07/18 03:04:28;;;;;;;8.00;3.42;;;14.30;99.90;;;;;;5032104;28;36474;-79
2023/07/18 03:06:54;;;;;;;8.23;3.20;;;14.30;99.90;;;;;;5043331;28;38664;-79
2023/07/18 03:09:21;;;;;;;8.25;2.97;;;14.30;99.90;;;;;;5047144;28;39295;-81
2023/07/18 03:11:49;;;;;;;11.70;3.28;;;14.30;99.90;;;;;;5068412;28;37275;-81
2023/07/18 03:14:17;;;;;;;9.88;3.28;;;14.30;99.90;;;;;;5045171;28;37294;-78
2023/07/18 03:16:45;;;;;;;13.77;3.75;;;14.30;99.90;;;;;;5047035;28;37816;-81
2023/07/18 03:19:14;;;;;;;12.63;3.80;;;14.30;99.90;;;;;;5047124;28;38326;-81
2023/07/18 03:21:40;;;;;;;11.25;3.40;;;14.30;99.90;;;;;;5044928;28;38627;-79
2023/07/18 03:24:10;;;;;;;11.98;3.30;;;14.30;99.90;;;;;;5042568;28;37198;-79
2023/07/18 03:26:36;;;;;;;10.20;3.75;;;14.30;99.90;;;;;;5044966;28;38009;-79
2023/07/18 03:29:06;;;;;;;11.40;3.42;;;14.30;99.90;;;;;;5044126;28;37860;-79
2023/07/18 03:31:33;;;;;;;10.15;4.30;;;14.30;99.90;;;;;;5061213;28;38589;-79
2023/07/18 03:34:00;;;;;;;11.15;3.50;;;14.30;99.90;;;;;;5044460;28;37717;-79
2023/07/18 03:36:27;;;;;;;8.38;3.42;;;14.30;99.90;;;;;;5044964;28;38057;-79
2023/07/18 03:38:54;;;;;;;13.60;4.25;;;14.20;99.90;;;;;;5045797;28;39539;-79
2023/07/18 03:41:21;;;;;;;14.32;3.60;;;14.20;99.90;;;;;;5043407;28;38018;-79
2023/07/18 03:43:47;;;;;;;12.20;3.63;;;14.30;99.90;;;;;;5042850;28;36181;-79
2023/07/18 03:46:13;;;;;;;10.73;3.53;;;14.30;99.90;;;;;;5047292;28;38730;-80
2023/07/18 03:48:39;;;;;;;12.15;3.78;;;14.30;99.90;;;;;;5047131;28;39039;-79
2023/07/18 03:51:05;;;;;;;11.77;3.65;;;14.30;99.90;;;;;;5062926;28;38573;-79
2023/07/18 03:53:32;;;;;;;9.75;3.80;;;14.40;99.90;;;;;;5048170;28;37456;-79
2023/07/18 03:56:06;;;;;;;11.13;3.92;;;14.40;99.90;;;;;;5046964;28;39346;-79
2023/07/18 03:58:33;;;;;;;9.35;4.00;;;14.40;99.90;;;;;;5047483;28;49337;-79
2023/07/18 04:01:06;;;;;;;10.02;4.30;;;14.40;99.90;;;;;;5059663;28;39837;-79
2023/07/18 04:03:32;;;;;;;8.73;4.20;;;14.40;99.90;;;;;;5068019;28;47572;-79
2023/07/18 04:06:01;;;;;;;10.15;4.25;;;14.40;99.90;;;;;;5046011;28;38007;-79
2023/07/18 04:08:28;;;;;;;9.48;4.20;;;14.40;99.90;;;;;;5042168;28;36979;-79
2023/07/18 04:10:57;;;;;;;11.07;4.43;;;14.40;99.90;;;;;;5049220;28;39726;-79
2023/07/18 04:13:25;;;;;;;12.38;4.15;;;14.40;99.90;;;;;;5036696;28;37355;-79
2023/07/18 04:15:55;;;;;;;9.70;3.80;;;14.40;99.90;;;;;;5037003;28;37635;-77
2023/07/18 04:18:24;;;;;;;9.68;3.35;;;14.40;99.90;;;;;;5039225;28;20042;-79
2023/07/18 04:20:59;;;;;;;14.63;4.35;;;14.30;99.90;;;;;;5036425;28;38367;-79
2023/07/18 04:23:25;;;;;;;13.20;4.13;;;14.30;99.90;;;;;;5035240;28;37636;-79
2023/07/18 04:26:00;;;;;;;12.90;3.83;;;14.40;99.90;;;;;;5036903;28;37805;-78
2023/07/18 04:28:34;;;;;;;9.85;3.58;;;14.40;99.90;;;;;;5036189;28;38359;-78
2023/07/18 04:31:01;;;;;;;7.95;3.20;;;14.40;99.90;;;;;;5053244;28;38547;-79
2023/07/18 04:33:31;;;;;;;12.35;4.10;;;14.50;99.90;;;;;;5038518;28;47320;-79
2023/07/18 04:35:57;;;;;;;14.98;4.30;;;14.50;99.90;;;;;;5040991;28;39525;-79
2023/07/18 04:38:24;;;;;;;9.30;4.22;;;14.40;99.90;;;;;;5039822;28;39183;-79
2023/07/18 04:40:50;;;;;;;9.90;4.22;;;14.50;99.90;;;;;;5051888;28;39435;-79
2023/07/18 04:43:19;;;;;;;10.38;3.70;;;14.60;99.90;;;;;;5051629;28;38511;-79
2023/07/18 04:45:47;;;;;;;12.02;3.70;;;14.60;99.90;;;;;;5034467;28;37419;-79
2023/07/18 04:48:14;;;;;;;13.55;3.80;;;14.70;99.90;;;;;;5036571;28;39979;-78
2023/07/18 04:50:44;;;;;;;12.80;4.00;;;14.70;99.90;;;;;;5039573;28;37922;-78
2023/07/18 04:53:10;;;;;;;13.20;4.30;;;14.80;99.90;;;;;;5047179;28;38424;-79
2023/07/18 04:55:38;;;;;;;10.68;4.18;;;14.70;99.90;;;;;;5044975;28;38824;-79
2023/07/18 04:58:06;;;;;;;9.45;4.15;;;14.80;99.90;;;;;;5026706;28;38111;-79
2023/07/18 05:00:33;;;;;;;12.48;4.15;;;14.80;99.90;;;;;;5039622;28;38255;-79
2023/07/18 05:03:00;;;;;;;14.90;4.13;;;14.80;99.90;;;;;;5040100;28;37990;-79
2023/07/18 05:05:30;;;;;;;12.10;4.15;;;14.90;99.90;;;;;;5054244;28;37753;-79
2023/07/18 05:08:01;;;;;;;15.48;4.53;;;14.90;99.90;;;;;;5042292;28;39674;-79
2023/07/18 05:10:28;;;;;;;13.88;5.07;;;14.90;99.90;;;;;;5040439;28;47062;-79
2023/07/18 05:12:55;;;;;;;13.45;4.25;;;15.00;99.90;;;;;;5039621;28;35947;-79
2023/07/18 05:15:24;;;;;;;12.57;4.70;;;15.00;99.90;;;;;;5038678;28;40568;-79
2023/07/18 05:17:50;;;;;;;14.45;4.30;;;15.10;99.90;;;;;;5040018;28;39239;-79
2023/07/18 05:20:19;;;;;;;20.88;4.88;;;15.20;99.90;;;;;;5040793;28;38462;-79
2023/07/18 05:22:45;;;;;;;14.80;4.90;;;15.30;99.90;;;;;;5037655;28;37499;-79
2023/07/18 05:25:14;;;;;;;14.85;4.75;;;15.30;99.90;;;;;;5038536;28;37482;-78
2023/07/18 05:27:41;;;;;;;10.57;4.53;;;15.40;99.90;;;;;;5048414;28;40075;-78
2023/07/18 05:30:16;;;;;;;17.60;5.22;;;15.50;99.90;;;;;;5057829;28;38657;-79
2023/07/18 05:32:43;;;;;;;17.00;4.90;;;15.50;99.90;;;;;;5037140;28;36560;-78
2023/07/18 05:35:11;;;;;;;18.10;5.38;;;15.60;99.90;;;;;;5037100;28;39892;-78
2023/07/18 05:37:38;;;;;;;16.88;5.28;;;15.70;99.90;;;;;;5057012;28;39956;-78
2023/07/18 05:40:09;;;;;;;21.02;5.78;;;15.70;99.90;;;;;;5036977;28;37869;-78
2023/07/18 05:42:40;;;;;;;19.20;5.70;;;15.90;99.90;;;;;;5040522;28;37601;-78
2023/07/18 05:45:07;;;;;;;19.65;5.63;;;15.80;99.90;;;;;;5037928;28;38233;-78
2023/07/18 05:47:34;;;;;;;21.27;7.10;;;16.00;99.90;;;;;;5028188;28;38760;-78
2023/07/18 05:50:01;;;;;;;18.95;6.50;;;15.90;99.90;;;;;;5041433;28;38302;-78
2023/07/18 05:52:28;;;;;;;19.42;6.55;;;16.00;99.90;;;;;;5035109;28;36129;-78
2023/07/18 05:54:54;;;;;;;18.50;6.15;;;16.00;99.90;;;;;;5035677;28;38945;-78
2023/07/18 05:57:20;;;;;;;19.40;7.80;;;16.00;99.90;;;;;;5040607;28;38223;-79
2023/07/18 05:59:46;;;;;;;21.02;7.50;;;16.10;99.90;;;;;;5039387;28;37943;-78
2023/07/18 06:02:14;;;;;;;16.92;6.85;;;16.20;99.90;;;;;;5036808;28;39220;-78
2023/07/18 06:04:41;;;;;;;19.30;7.43;;;16.20;99.90;;;;;;5042302;28;38896;-78
2023/07/18 06:07:07;;;;;;;18.88;8.18;;;16.20;99.90;;;;;;5042546;28;38694;-78
2023/07/18 06:09:33;;;;;;;23.05;10.18;;;16.30;99.90;;;;;;5044452;28;38403;-79
2023/07/18 06:11:59;;;;;;;24.35;10.80;;;16.20;99.90;;;;;;5043009;28;35876;-78
2023/07/18 06:14:26;;;;;;;22.52;9.30;;;16.20;99.90;;;;;;5043296;28;37442;-79
2023/07/18 06:16:54;;;;;;;22.38;10.57;;;16.20;99.90;;;;;;5043690;28;37947;-79
2023/07/18 06:19:21;;;;;;;24.88;10.55;;;16.20;99.90;;;;;;5037422;28;38050;-78
2023/07/18 06:21:48;;;;;;;19.88;10.13;;;16.20;99.90;;;;;;5038329;28;36840;-79
2023/07/18 06:24:16;;;;;;;18.52;9.93;;;16.30;99.90;;;;;;5044010;28;40911;-79
2023/07/18 06:26:48;;;;;;;23.70;10.32;;;16.40;99.90;;;;;;5046132;28;38701;-79
2023/07/18 06:29:17;;;;;;;25.95;11.40;;;16.40;99.90;;;;;;5046301;28;39952;-79
2023/07/18 06:31:47;;;;;;;29.98;12.23;;;16.30;99.90;;;;;;5048721;28;36195;-79
2023/07/18 06:34:22;;;;;;;22.88;11.10;;;16.30;99.90;;;;;;5047157;28;37625;-79
2023/07/18 06:36:48;;;;;;;24.60;12.73;;;16.20;99.90;;;;;;5051310;28;37527;-79
2023/07/18 06:39:16;;;;;;;27.45;12.57;;;16.20;99.90;;;;;;5047570;28;36795;-79
2023/07/18 06:41:43;;;;;;;25.20;12.02;;;16.30;99.90;;;;;;5050405;28;36112;-79
2023/07/18 06:44:12;;;;;;;23.98;12.00;;;16.50;99.90;;;;;;5050117;28;38887;-80
2023/07/18 06:46:38;;;;;;;21.70;11.98;;;16.50;99.90;;;;;;5053157;28;39687;-79
2023/07/18 06:49:06;;;;;;;24.63;11.90;;;16.70;99.90;;;;;;5051962;28;36995;-79
2023/07/18 06:51:32;;;;;;;22.27;11.57;;;16.80;99.90;;;;;;5053987;28;36541;-79
2023/07/18 06:53:59;;;;;;;24.85;12.52;;;16.90;99.90;;;;;;5053875;28;38244;-79
2023/07/18 06:56:25;;;;;;;23.85;12.50;;;17.00;99.90;;;;;;5053015;28;37441;-78
2023/07/18 06:58:51;;;;;;;18.65;11.32;;;17.10;99.90;;;;;;5055154;28;38344;-79
2023/07/18 07:01:17;;;;;;;20.27;11.88;;;17.20;99.90;;;;;;5053056;28;38960;-78
2023/07/18 07:03:44;;;;;;;19.75;11.75;;;17.30;99.90;;;;;;5054420;28;40622;-79
2023/07/18 07:06:18;;;;;;;19.85;11.23;;;17.50;99.90;;;;;;5053047;28;38429;-79
2023/07/18 07:08:44;;;;;;;27.85;12.82;;;17.40;99.90;;;;;;5049997;28;37829;-78
2023/07/18 07:11:10;;;;;;;22.67;11.63;;;17.30;99.90;;;;;;5053960;28;37290;-79
2023/07/18 07:13:37;;;;;;;27.05;13.40;;;17.40;99.90;;;;;;5055964;28;40077;-78
2023/07/18 07:16:05;;;;;;;19.70;10.98;;;17.60;99.90;;;;;;5041822;28;37732;-79
2023/07/18 07:18:31;;;;;;;22.25;10.85;;;17.50;99.90;;;;;;5069457;28;38415;-78
2023/07/18 07:21:01;;;;;;;22.48;11.70;;;17.80;99.90;;;;;;5054205;28;37967;-79
2023/07/18 07:23:29;;;;;;;17.88;11.25;;;17.70;99.90;;;;;;5052091;28;48315;-78
2023/07/18 07:26:12;;;;;;;22.45;10.93;;;17.70;99.90;;;;;;5053735;28;38906;-78
2023/07/18 07:28:42;;;;;;;24.23;10.57;;;17.70;99.90;;;;;;4999812;28;50082;-79
2023/07/18 07:31:10;;;;;;;20.25;10.27;;;17.50;99.90;;;;;;5045344;28;40166;-79
2023/07/18 07:33:39;;;;;;;20.88;11.18;;;17.60;99.90;;;;;;5046747;28;39011;-79
2023/07/18 07:36:18;;;;;;;18.95;10.95;;;17.80;99.90;;;;;;5024543;28;38415;-79
2023/07/18 07:38:52;;;;;;;18.98;9.57;;;17.80;99.90;;;;;;5044557;28;50232;-79
2023/07/18 07:42:07;;;;;;;18.73;9.02;;;18.00;99.90;;;;;;5022729;28;38203;-79
2023/07/18 07:45:20;;;;;;;14.55;8.60;;;18.50;99.90;;;;;;5022970;28;49888;-79
2023/07/18 07:51:22;;;;;;;15.77;8.25;;;19.30;99.90;;;;;;5032960;23;39410;-79
2023/07/18 07:53:48;;;;;;;16.08;7.22;;;19.60;99.90;;;;;;5044120;28;37446;-79
2023/07/18 07:56:14;;;;;;;14.00;7.70;;;19.60;99.90;;;;;;5040223;28;38808;-79
2023/07/18 07:58:40;;;;;;;15.98;7.38;;;19.50;99.90;;;;;;5044896;28;38415;-79
2023/07/18 08:01:06;;;;;;;18.88;8.40;;;19.30;99.90;;;;;;5044088;28;37870;-79
2023/07/18 08:03:32;;;;;;;18.63;8.60;;;19.20;99.90;;;;;;5044145;28;38517;-79
2023/07/18 08:06:00;;;;;;;17.42;8.60;;;19.20;99.90;;;;;;5041491;28;38504;-80
2023/07/18 08:08:27;;;;;;;15.68;8.02;;;19.40;99.90;;;;;;5053817;28;37185;-79
2023/07/18 08:10:55;;;;;;;15.45;7.78;;;19.70;99.90;;;;;;5043025;28;38598;-80
2023/07/18 08:13:21;;;;;;;14.70;6.90;;;19.80;99.90;;;;;;5058489;28;36711;-80
2023/07/18 08:15:48;;;;;;;13.95;6.93;;;20.20;99.90;;;;;;5042287;28;38053;-80
2023/07/18 08:18:14;;;;;;;14.15;7.63;;;20.20;99.90;;;;;;5042595;28;39036;-79
2023/07/18 08:20:40;;;;;;;14.38;7.28;;;20.20;99.90;;;;;;5040863;28;38838;-78
2023/07/18 08:23:07;;;;;;;16.10;7.07;;;20.20;99.90;;;;;;5040942;28;38509;-79
2023/07/18 08:25:33;;;;;;;15.55;7.47;;;20.20;99.90;;;;;;5029623;28;37781;-78
2023/07/18 08:27:59;;;;;;;20.20;8.70;;;20.00;99.90;;;;;;5041442;28;38542;-79
2023/07/18 08:30:25;;;;;;;19.05;8.55;;;19.70;99.90;;;;;;5038701;28;37462;-79
2023/07/18 08:32:51;;;;;;;16.08;7.38;;;19.60;99.90;;;;;;5042015;28;39219;-78
2023/07/18 08:35:18;;;;;;;17.10;7.65;;;19.80;99.90;;;;;;5044935;28;39107;-79
2023/07/18 08:37:44;;;;;;;16.33;7.32;;;20.00;99.90;;;;;;5042775;28;37053;-81
2023/07/18 08:40:12;;;;;;;14.80;6.70;;;20.40;99.90;;;;;;5044184;28;38430;-79
2023/07/18 08:42:39;;;;;;;17.33;7.40;;;20.40;99.90;;;;;;5042698;28;37666;-79
2023/07/18 08:45:08;;;;;;;11.13;5.70;;;20.40;99.90;;;;;;5060248;28;38088;-79
2023/07/18 08:47:36;;;;;;;13.95;6.43;;;20.80;99.90;;;;;;5041122;28;37223;-78
2023/07/18 08:50:03;;;;;;;14.48;6.57;;;20.90;99.90;;;;;;5045342;28;37301;-79
2023/07/18 08:52:29;;;;;;;17.58;6.75;;;20.70;99.90;;;;;;5047983;28;47142;-79
2023/07/18 08:54:55;;;;;;;11.88;6.25;;;20.70;99.90;;;;;;5065009;28;37565;-79
2023/07/18 08:57:22;;;;;;;13.63;6.10;;;20.80;99.90;;;;;;5051327;28;37327;-79
2023/07/18 08:59:49;;;;;;;18.48;7.75;;;20.80;99.90;;;;;;5044599;28;37010;-79
2023/07/18 09:02:15;;;;;;;17.20;7.15;;;20.40;99.90;;;;;;5043252;28;36591;-79
2023/07/18 09:04:45;;;;;;;11.02;6.05;;;20.00;99.90;;;;;;5052852;28;39845;-79
2023/07/18 09:07:14;;;;;;;14.15;6.78;;;20.20;99.90;;;;;;5068353;28;38591;-80
2023/07/18 09:09:47;;;;;;;17.77;7.68;;;20.60;99.90;;;;;;5048629;28;38485;-79
2023/07/18 09:12:13;;;;;;;17.38;7.60;;;20.60;99.90;;;;;;5051840;28;37694;-80
2023/07/18 09:14:40;;;;;;;15.18;7.70;;;20.50;99.90;;;;;;5049822;28;37623;-79
2023/07/18 09:17:07;;;;;;;14.48;6.78;;;20.90;99.70;;;;;;5049374;28;37502;-80
2023/07/18 09:19:37;;;;;;;13.85;6.20;;;20.80;99.90;;;;;;5043514;28;38601;-79
2023/07/18 09:22:07;;;;;;;15.77;6.45;;;21.30;98.60;;;;;;5043828;28;38047;-80
2023/07/18 09:24:37;;;;;;;12.38;5.32;;;21.60;90.50;;;;;;5044564;28;37819;-80
2023/07/18 09:27:08;;;;;;;15.38;6.00;;;21.70;87.10;;;;;;5040558;28;37688;-78
2023/07/18 09:29:35;;;;;;;11.73;5.97;;;21.60;88.30;;;;;;5041956;28;38905;-79
2023/07/18 09:32:01;;;;;;;15.35;5.85;;;21.70;86.00;;;;;;5025757;28;36614;-79
2023/07/18 09:34:30;;;;;;;13.80;6.07;;;21.60;93.30;;;;;;5042351;28;47028;-79
2023/07/18 09:37:01;;;;;;;14.25;5.43;;;21.40;95.00;;;;;;5038724;28;38684;-76
2023/07/18 09:39:28;;;;;;;12.10;5.95;;;21.70;92.00;;;;;;5029802;28;47810;-77
2023/07/18 09:41:55;;;;;;;17.80;6.60;;;21.90;88.30;;;;;;5034867;28;36160;-77
2023/07/18 09:44:25;;;;;;;14.00;5.25;;;22.10;92.30;;;;;;5037702;28;37830;-78
2023/07/18 09:46:51;;;;;;;13.52;4.90;;;22.50;96.80;;;;;;5049391;28;38238;-77
2023/07/18 09:49:19;;;;;;;10.63;4.47;;;22.40;76.80;;;;;;5033042;28;38163;-78
2023/07/18 09:52:04;;;;;;;11.90;5.60;;;22.60;61.90;;;;;;5033005;28;36017;-77
2023/07/18 09:54:33;;;;;;;10.75;4.90;;;22.80;54.80;;;;;;5036373;28;47605;-78
2023/07/18 09:57:03;;;;;;;11.20;5.32;;;22.80;43.60;;;;;;5037571;28;37361;-77
2023/07/18 09:59:37;;;;;;;13.38;6.28;;;22.30;58.60;;;;;;5041661;28;47544;-79
2023/07/18 10:02:06;;;;;;;10.27;5.30;;;21.90;66.20;;;;;;5058696;28;37514;-79
2023/07/18 10:04:36;;;;;;;9.23;4.90;;;21.70;76.60;;;;;;5039993;28;38727;-78
2023/07/18 10:07:03;;;;;;;12.40;5.55;;;22.50;62.90;;;;;;5037291;28;37933;-77
2023/07/18 10:09:32;;;;;;;10.13;4.40;;;23.20;59.10;;;;;;5036962;28;38599;-77
2023/07/18 10:11:59;;;;;;;12.18;4.18;;;23.60;36.30;;;;;;5037339;28;37378;-77
2023/07/18 10:15:00;;;;;;;12.02;4.28;;;23.70;47.40;;;;;;5055006;28;38086;-79
2023/07/18 10:17:38;;;;;;;6.20;3.13;;;24.00;31.00;;;;;;5038333;28;37316;-79
2023/07/18 10:20:12;;;;;;;9.25;3.40;;;24.20;21.60;;;;;;5054605;28;38851;-78
2023/07/18 10:22:57;;;;;;;11.20;3.40;;;24.30;1.00;;;;;;5039249;28;47013;-78
2023/07/18 10:25:25;;;;;;;10.45;4.50;;;24.60;1.00;;;;;;5041130;28;38097;-79
2023/07/18 10:27:56;;;;;;;8.52;3.35;;;24.40;6.60;;;;;;5039691;28;38911;-78
2023/07/18 10:30:22;;;;;;;8.68;4.05;;;24.50;1.00;;;;;;5049030;28;37062;-78
2023/07/18 10:32:53;;;;;;;8.63;3.92;;;24.50;3.30;;;;;;5042040;28;38843;-78
2023/07/18 10:35:21;;;;;;;7.50;3.90;;;24.10;1.00;;;;;;5038116;28;38666;-78
2023/07/18 10:37:53;;;;;;;8.40;3.63;;;24.00;11.40;;;;;;5040537;28;37611;-78
2023/07/18 10:40:39;;;;;;;;;;;24.30;1.00;;;;;;5038675;28;38086;-79
2023/07/18 10:43:09;;;;;;;10.05;2.90;;;24.30;1.00;;;;;;5046966;28;36533;-79
2023/07/18 10:45:46;;;;;;;9.70;3.15;;;24.40;1.00;;;;;;5038449;28;40478;-80
2023/07/18 10:48:14;;;;;;;7.03;2.53;;;24.60;1.00;;;;;;5038472;28;38942;-79
2023/07/18 10:50:41;;;;;;;7.57;3.47;;;24.90;1.00;;;;;;5038559;28;37367;-80
2023/07/18 10:53:11;;;;;;;9.77;3.60;;;24.90;1.00;;;;;;5038776;28;37373;-79
2023/07/18 10:55:38;;;;;;;9.07;2.90;;;24.50;1.00;;;;;;5052612;28;38990;-79
2023/07/18 10:58:18;;;;;;;9.82;2.78;;;24.60;1.00;;;;;;5034901;28;37734;-78
2023/07/18 11:00:45;;;;;;;7.30;2.20;;;24.70;1.00;;;;;;5035177;28;38367;-78
2023/07/18 11:03:34;;;;;;;10.43;2.33;;;24.60;1.00;;;;;;5034872;28;37038;-78
2023/07/18 11:06:04;;;;;;;5.90;1.67;;;24.00;1.00;;;;;;5035707;28;37903;-78
2023/07/18 11:08:31;;;;;;;10.18;2.60;;;23.90;1.00;;;;;;5041458;28;48836;-79
2023/07/18 11:11:01;;;;;;;8.27;2.45;;;23.50;1.00;;;;;;5050343;28;37919;-79
2023/07/18 11:13:37;;;;;;;6.00;2.83;;;23.20;1.00;;;;;;5032003;28;47370;-76
2023/07/18 11:16:15;;;;;;;6.82;2.45;;;23.00;1.00;;;;;;5048873;28;39242;-77
2023/07/18 11:18:43;;;;;;;6.95;2.40;;;23.70;1.00;;;;;;5050857;28;37436;-78
2023/07/18 11:21:10;;;;;;;9.32;2.15;;;24.60;1.00;;;;;;5032298;28;38791;-78
2023/07/18 11:23:38;;;;;;;5.30;1.73;;;25.20;1.00;;;;;;5049836;28;36416;-78
2023/07/18 11:26:16;;;;;;;5.45;1.65;;;24.90;1.00;;;;;;5043835;28;38640;-78
2023/07/18 11:28:44;;;;;;;5.50;1.50;;;25.10;1.00;;;;;;5034046;28;39017;-77
2023/07/18 11:31:30;;;;;;;6.22;1.60;;;25.30;1.00;;;;;;5049859;28;37941;-79
2023/07/18 11:34:00;;;;;;;7.68;2.03;;;25.70;1.00;;;;;;5038065;28;37612;-79
2023/07/18 11:36:33;;;;;;;5.50;1.75;;;25.90;99.90;;;;;;5035757;28;46440;-79
2023/07/18 11:39:04;;;;;;;7.07;2.10;;;24.70;99.90;;;;;;5054154;28;39327;-78
2023/07/18 11:41:33;;;;;;;5.60;1.95;;;23.60;99.90;;;;;;5034024;28;49002;-77
2023/07/18 11:44:01;;;;;;;6.15;1.77;;;23.30;1.00;;;;;;5034897;28;37445;-77
2023/07/18 11:46:35;;;;;;;5.50;1.90;;;23.20;1.00;;;;;;5028296;28;48162;-78
2023/07/18 11:49:01;;;;;;;4.97;1.40;;;23.70;1.00;;;;;;5040868;28;37619;-77
2023/07/18 11:51:31;;;;;;;6.28;1.45;;;24.00;1.00;;;;;;5030295;28;47143;-77
2023/07/18 11:53:57;;;;;;;6.05;1.40;;;24.50;1.00;;;;;;5032229;28;37103;-78
2023/07/18 11:56:23;;;;;;;8.57;1.58;;;24.50;99.90;;;;;;5032807;28;38867;-78
2023/07/18 11:58:49;;;;;;;3.30;1.20;;;23.90;99.90;;;;;;5049465;28;36769;-78
2023/07/18 12:01:15;;;;;;;3.75;1.27;;;23.50;99.90;;;;;;5046605;28;36852;-78
2023/07/18 12:03:41;;;;;;;3.88;1.00;;;24.10;99.90;;;;;;5032424;28;36709;-78
2023/07/18 12:06:07;;;;;;;4.00;1.02;;;24.40;1.00;;;;;;5032735;28;38650;-78
2023/07/18 12:08:33;;;;;;;4.43;1.20;;;24.30;99.90;;;;;;5032683;28;38503;-78
2023/07/18 12:10:59;;;;;;;7.63;1.58;;;24.00;1.00;;;;;;5030751;28;38377;-77
2023/07/18 12:13:25;;;;;;;6.25;1.40;;;23.90;1.00;;;;;;5037647;28;36323;-77
2023/07/18 12:15:53;;;;;;;3.58;1.05;;;23.80;1.00;;;;;;5030630;28;38137;-78
2023/07/18 12:18:20;;;;;;;5.63;1.40;;;23.90;1.00;;;;;;5031803;28;38821;-78
2023/07/18 12:20:46;;;;;;;4.43;1.45;;;24.00;99.90;;;;;;5030698;28;38847;-77
2023/07/18 12:23:12;;;;;;;6.97;1.60;;;24.60;1.00;;;;;;5031362;28;36175;-77
2023/07/18 12:25:38;;;;;;;4.18;1.52;;;24.70;1.00;;;;;;5031049;28;38780;-78
2023/07/18 12:28:05;;;;;;;5.35;1.40;;;24.50;99.90;;;;;;5031725;28;40039;-77
2023/07/18 12:30:31;;;;;;;2.95;1.10;;;24.80;99.90;;;;;;5048659;28;38601;-78
2023/07/18 12:32:58;;;;;;;3.45;1.17;;;24.80;1.00;;;;;;5057364;28;36182;-79
2023/07/18 12:35:25;;;;;;;4.68;1.17;;;24.60;1.00;;;;;;5034221;28;37700;-78
2023/07/18 12:37:54;;;;;;;4.40;1.50;;;24.20;99.90;;;;;;5035206;28;38897;-79
2023/07/18 12:40:21;;;;;;;4.43;1.00;;;24.30;1.00;;;;;;5032811;28;36889;-77
2023/07/18 12:42:47;;;;;;;3.15;0.95;;;24.40;99.90;;;;;;5033979;28;36354;-77
2023/07/18 12:45:13;;;;;;;6.18;1.48;;;24.90;69.90;;;;;;5037028;28;39478;-78
2023/07/18 12:47:40;;;;;;;4.05;1.20;;;25.80;1.00;;;;;;5037778;28;37335;-78
2023/07/18 12:50:07;;;;;;;6.20;1.23;;;26.20;1.00;;;;;;5058329;28;38220;-78
2023/07/18 12:52:34;;;;;;;4.93;1.10;;;26.10;1.00;;;;;;5045019;28;37226;-80
2023/07/18 12:55:00;;;;;;;2.50;1.33;;;26.50;1.00;;;;;;5040751;28;38539;-79
2023/07/18 12:57:27;;;;;;;3.95;1.10;;;26.70;1.00;;;;;;5035769;28;38931;-78